createdAt,value
2018-05-29T00:00:07.968Z,0
2018-05-29T00:01:09.629Z,0
2018-05-29T00:02:11.291Z,0
2018-05-29T00:03:12.959Z,0
2018-05-29T00:04:14.619Z,0
2018-05-29T00:05:16.285Z,0
2018-05-29T00:06:17.935Z,0
2018-05-29T00:07:19.596Z,0
2018-05-29T00:08:21.252Z,0
2018-05-29T00:09:22.920Z,0
2018-05-29T00:10:24.572Z,0
2018-05-29T00:11:26.237Z,0
2018-05-29T00:12:27.895Z,0
2018-05-29T00:13:29.555Z,0
2018-05-29T00:14:31.209Z,0
2018-05-29T00:15:32.872Z,0
2018-05-29T00:16:34.537Z,0
2018-05-29T00:17:36.600Z,0
2018-05-29T00:18:38.354Z,0
2018-05-29T00:19:40.002Z,0
2018-05-29T00:20:41.680Z,0
2018-05-29T00:21:43.340Z,0
2018-05-29T00:22:45.006Z,0
2018-05-29T00:23:46.660Z,0
2018-05-29T00:24:48.328Z,0
2018-05-29T00:25:49.981Z,0
2018-05-29T00:26:51.635Z,0
2018-05-29T00:27:53.292Z,0
2018-05-29T00:28:54.945Z,0
2018-05-29T00:29:56.608Z,0
2018-05-29T00:30:58.263Z,0
2018-05-29T00:31:59.923Z,0
2018-05-29T00:33:01.587Z,0
2018-05-29T00:34:03.233Z,0
2018-05-29T00:35:04.897Z,0
2018-05-29T00:36:06.558Z,0
2018-05-29T00:37:08.249Z,0
2018-05-29T00:38:09.913Z,0
2018-05-29T00:39:11.575Z,0
2018-05-29T00:40:13.249Z,0
2018-05-29T00:41:14.911Z,0
2018-05-29T00:42:16.565Z,0
2018-05-29T00:43:18.221Z,0
2018-05-29T00:44:19.872Z,0
2018-05-29T00:45:21.533Z,0
2018-05-29T00:46:23.190Z,0
2018-05-29T00:47:24.856Z,0
2018-05-29T00:48:26.505Z,0
2018-05-29T00:49:28.175Z,0
2018-05-29T00:50:29.828Z,0
2018-05-29T00:51:31.493Z,0
2018-05-29T00:52:33.153Z,0
2018-05-29T00:53:34.820Z,0
2018-05-29T00:54:36.506Z,0
2018-05-29T00:55:38.173Z,0
2018-05-29T00:56:39.832Z,0
2018-05-29T00:57:41.478Z,0
2018-05-29T00:58:43.139Z,0
2018-05-29T00:59:44.805Z,0
2018-05-29T01:00:46.485Z,0
2018-05-29T01:01:48.153Z,0
2018-05-29T01:02:49.806Z,0
2018-05-29T01:03:51.464Z,0
2018-05-29T01:04:53.130Z,0
2018-05-29T01:05:54.786Z,0
2018-05-29T01:06:56.458Z,0
2018-05-29T01:07:58.113Z,0
2018-05-29T01:08:59.772Z,0
2018-05-29T01:10:01.417Z,0
2018-05-29T01:11:03.085Z,0
2018-05-29T01:12:04.737Z,0
2018-05-29T01:13:06.394Z,0
2018-05-29T01:14:08.051Z,0
2018-05-29T01:15:09.720Z,0
2018-05-29T01:16:11.393Z,0
2018-05-29T01:17:13.044Z,0
2018-05-29T01:18:14.699Z,0
2018-05-29T01:19:16.361Z,0
2018-05-29T01:20:18.018Z,0
2018-05-29T01:21:19.680Z,0
2018-05-29T01:22:21.334Z,0
2018-05-29T01:23:22.994Z,0
2018-05-29T01:24:24.653Z,0
2018-05-29T01:25:26.310Z,0
2018-05-29T01:26:27.961Z,0
2018-05-29T01:27:29.626Z,0
2018-05-29T01:28:31.278Z,0
2018-05-29T01:29:32.946Z,0
2018-05-29T01:30:34.609Z,0
2018-05-29T01:31:36.274Z,0
2018-05-29T01:32:37.916Z,0
2018-05-29T01:33:39.577Z,0
2018-05-29T01:34:41.228Z,0
2018-05-29T01:35:42.893Z,0
2018-05-29T01:36:44.551Z,0
2018-05-29T01:37:46.239Z,0
2018-05-29T01:38:47.913Z,0
2018-05-29T01:39:49.606Z,0
2018-05-29T01:40:51.293Z,0
2018-05-29T01:41:52.952Z,0
2018-05-29T01:42:54.617Z,0
2018-05-29T01:43:56.270Z,0
2018-05-29T01:44:57.928Z,0
2018-05-29T01:45:59.583Z,0
2018-05-29T01:47:01.239Z,0
2018-05-29T01:48:02.908Z,0
2018-05-29T01:49:04.577Z,0
2018-05-29T01:50:06.225Z,0
2018-05-29T01:51:07.899Z,0
2018-05-29T01:52:09.585Z,0
2018-05-29T01:53:11.247Z,0
2018-05-29T01:54:12.901Z,0
2018-05-29T01:55:14.558Z,0
2018-05-29T02:01:37.805Z,0
2018-05-29T02:02:39.451Z,0
2018-05-29T02:03:41.113Z,0
2018-05-29T02:04:42.778Z,0
2018-05-29T02:05:44.452Z,0
2018-05-29T02:06:46.112Z,0
2018-05-29T02:07:47.758Z,0
2018-05-29T02:08:49.425Z,0
2018-05-29T02:09:51.086Z,0
2018-05-29T02:10:52.830Z,0
2018-05-29T02:11:54.522Z,0
2018-05-29T02:12:56.170Z,0
2018-05-29T02:13:57.822Z,0
2018-05-29T02:14:59.479Z,0
2018-05-29T02:16:01.138Z,0
2018-05-29T02:17:02.791Z,0
2018-05-29T02:18:04.444Z,0
2018-05-29T02:19:06.102Z,0
2018-05-29T02:20:07.781Z,0
2018-05-29T02:21:09.435Z,0
2018-05-29T02:22:11.094Z,0
2018-05-29T02:23:12.753Z,0
2018-05-29T02:24:14.417Z,0
2018-05-29T02:25:16.081Z,0
2018-05-29T02:26:17.741Z,0
2018-05-29T02:27:19.388Z,0
2018-05-29T02:28:21.053Z,0
2018-05-29T02:29:22.717Z,0
2018-05-29T02:30:24.369Z,0
2018-05-29T02:31:26.031Z,0
2018-05-29T02:32:27.695Z,0
2018-05-29T02:33:29.346Z,0
2018-05-29T02:34:31.025Z,0
2018-05-29T02:35:32.690Z,4
2018-05-29T02:36:34.379Z,4
2018-05-29T02:37:36.063Z,0
2018-05-29T02:38:37.707Z,0
2018-05-29T02:39:39.367Z,4
2018-05-29T02:40:41.018Z,4
2018-05-29T02:41:42.671Z,4
2018-05-29T02:42:44.324Z,4
2018-05-29T02:43:45.979Z,8
2018-05-29T02:44:47.633Z,8
2018-05-29T02:45:49.317Z,8
2018-05-29T02:46:50.950Z,12
2018-05-29T02:47:52.604Z,12
2018-05-29T02:48:54.269Z,12
2018-05-29T02:49:55.936Z,12
2018-05-29T02:50:57.592Z,16
2018-05-29T02:51:59.268Z,16
2018-05-29T02:53:00.912Z,20
2018-05-29T02:54:02.560Z,24
2018-05-29T02:55:04.228Z,24
2018-05-29T02:56:05.890Z,32
2018-05-29T02:57:07.554Z,32
2018-05-29T02:58:09.209Z,40
2018-05-29T02:59:10.872Z,44
2018-05-29T03:00:12.567Z,48
2018-05-29T03:01:14.228Z,56
2018-05-29T03:02:15.882Z,64
2018-05-29T03:03:17.526Z,76
2018-05-29T03:04:19.187Z,84
2018-05-29T03:05:20.860Z,92
2018-05-29T03:06:22.568Z,104
2018-05-29T03:07:24.212Z,116
2018-05-29T03:08:25.864Z,132
2018-05-29T03:09:27.527Z,148
2018-05-29T03:10:29.185Z,164
2018-05-29T03:11:30.843Z,180
2018-05-29T03:12:32.513Z,196
2018-05-29T03:13:34.189Z,220
2018-05-29T03:14:35.893Z,240
2018-05-29T03:15:37.550Z,264
2018-05-29T03:16:39.216Z,288
2018-05-29T03:17:40.861Z,312
2018-05-29T03:18:42.598Z,340
2018-05-29T03:19:44.243Z,368
2018-05-29T03:20:45.900Z,400
2018-05-29T03:21:47.565Z,432
2018-05-29T03:22:49.236Z,468
2018-05-29T03:23:50.903Z,508
2018-05-29T03:24:52.562Z,548
2018-05-29T03:25:54.230Z,592
2018-05-29T03:26:55.894Z,636
2018-05-29T03:27:57.549Z,684
2018-05-29T03:28:59.237Z,732
2018-05-29T03:30:00.903Z,780
2018-05-29T03:31:02.568Z,832
2018-05-29T03:32:04.232Z,884
2018-05-29T03:33:05.901Z,940
2018-05-29T03:34:07.562Z,996
2018-05-29T03:35:09.224Z,1056
2018-05-29T03:36:10.873Z,1116
2018-05-29T03:37:12.534Z,1176
2018-05-29T03:38:14.199Z,1244
2018-05-29T03:39:15.850Z,1308
2018-05-29T03:40:17.547Z,1380
2018-05-29T03:41:19.195Z,1448
2018-05-29T03:42:20.858Z,1520
2018-05-29T03:43:22.520Z,1592
2018-05-29T03:44:24.189Z,1672
2018-05-29T03:45:25.849Z,1748
2018-05-29T03:46:27.540Z,1828
2018-05-29T03:47:29.213Z,1904
2018-05-29T03:48:30.882Z,1992
2018-05-29T03:49:32.545Z,2076
2018-05-29T03:50:34.206Z,2164
2018-05-29T03:51:35.882Z,2256
2018-05-29T03:52:37.544Z,2352
2018-05-29T03:53:39.212Z,2444
2018-05-29T03:54:40.872Z,2536
2018-05-29T03:55:42.542Z,2640
2018-05-29T03:56:44.197Z,2736
2018-05-29T03:57:45.867Z,2828
2018-05-29T03:58:47.522Z,2920
2018-05-29T03:59:49.183Z,3016
2018-05-29T04:00:50.863Z,3100
2018-05-29T04:01:52.530Z,3180
2018-05-29T04:02:54.192Z,3252
2018-05-29T04:03:55.868Z,3320
2018-05-29T04:04:57.528Z,3384
2018-05-29T04:05:59.221Z,3464
2018-05-29T04:07:00.884Z,3544
2018-05-29T04:08:02.560Z,3624
2018-05-29T04:09:04.231Z,3704
2018-05-29T04:10:05.893Z,3776
2018-05-29T04:11:07.570Z,3852
2018-05-29T04:12:09.232Z,3944
2018-05-29T04:13:10.891Z,4060
2018-05-29T04:14:12.563Z,4196
2018-05-29T04:15:14.227Z,4332
2018-05-29T04:16:15.898Z,4464
2018-05-29T04:17:17.569Z,4588
2018-05-29T04:18:19.241Z,4716
2018-05-29T04:19:20.905Z,4824
2018-05-29T04:20:22.562Z,4884
2018-05-29T04:21:24.218Z,4944
2018-05-29T04:22:25.893Z,5036
2018-05-29T04:23:27.549Z,5160
2018-05-29T04:24:29.219Z,5304
2018-05-29T04:25:30.890Z,5452
2018-05-29T04:26:32.554Z,5600
2018-05-29T04:27:34.225Z,5760
2018-05-29T04:28:35.878Z,5920
2018-05-29T04:29:37.540Z,6072
2018-05-29T04:30:39.214Z,6260
2018-05-29T04:31:40.877Z,6672
2018-05-29T04:32:42.538Z,7240
2018-05-29T04:33:44.199Z,7740
2018-05-29T04:34:45.856Z,8028
2018-05-29T04:35:47.533Z,8360
2018-05-29T04:36:49.243Z,8508
2018-05-29T04:37:50.908Z,8652
2018-05-29T04:38:52.581Z,8824
2018-05-29T04:39:54.241Z,8932
2018-05-29T04:40:55.920Z,9160
2018-05-29T04:41:57.579Z,9308
2018-05-29T04:42:59.253Z,9512
2018-05-29T04:44:00.912Z,9708
2018-05-29T04:45:02.612Z,9876
2018-05-29T04:46:04.722Z,10080
2018-05-29T04:47:06.430Z,10224
2018-05-29T04:48:08.050Z,10276
2018-05-29T04:49:09.711Z,10360
2018-05-29T04:50:11.386Z,10488
2018-05-29T04:51:13.044Z,10732
2018-05-29T04:52:14.708Z,11008
2018-05-29T04:53:16.381Z,11196
2018-05-29T04:54:18.036Z,11312
2018-05-29T04:55:19.706Z,11384
2018-05-29T04:56:21.373Z,11412
2018-05-29T04:57:23.037Z,11564
2018-05-29T04:58:24.711Z,11764
2018-05-29T04:59:26.376Z,11892
2018-05-29T05:00:28.055Z,11996
2018-05-29T05:01:29.726Z,12164
2018-05-29T05:02:31.422Z,12264
2018-05-29T05:03:33.062Z,12428
2018-05-29T05:04:34.727Z,12648
2018-05-29T05:05:36.415Z,12852
2018-05-29T05:06:38.080Z,12988
2018-05-29T05:07:39.823Z,13148
2018-05-29T05:08:42.539Z,13552
2018-05-29T05:09:44.188Z,13900
2018-05-29T05:10:45.901Z,13972
2018-05-29T05:11:47.568Z,14004
2018-05-29T05:12:49.360Z,13812
2018-05-29T05:13:51.040Z,13784
2018-05-29T05:14:53.414Z,13932
2018-05-29T05:15:55.089Z,14180
2018-05-29T05:16:56.855Z,14412
2018-05-29T05:17:58.636Z,14600
2018-05-29T05:19:00.308Z,14792
2018-05-29T05:20:01.974Z,14936
2018-05-29T05:21:03.694Z,15232
2018-05-29T05:22:05.368Z,15524
2018-05-29T05:23:07.042Z,15868
2018-05-29T05:24:08.710Z,16092
2018-05-29T05:25:10.381Z,16140
2018-05-29T05:26:12.050Z,16276
2018-05-29T05:27:13.723Z,16320
2018-05-29T05:28:15.384Z,16704
2018-05-29T05:29:17.062Z,17088
2018-05-29T05:30:18.732Z,17568
2018-05-29T05:31:20.413Z,18432
2018-05-29T05:32:22.079Z,19296
2018-05-29T05:33:23.784Z,20000
2018-05-29T05:34:25.453Z,20128
2018-05-29T05:35:27.182Z,20096
2018-05-29T05:36:28.795Z,20064
2018-05-29T05:37:30.463Z,20384
2018-05-29T05:38:32.146Z,21152
2018-05-29T05:39:33.820Z,22112
2018-05-29T05:40:35.488Z,22944
2018-05-29T05:41:37.193Z,22976
2018-05-29T05:42:38.868Z,22912
2018-05-29T05:43:40.544Z,23808
2018-05-29T05:44:42.226Z,25472
2018-05-29T05:45:43.894Z,28064
2018-05-29T05:46:45.584Z,29856
2018-05-29T05:47:47.246Z,29600
2018-05-29T05:48:48.925Z,27232
2018-05-29T05:49:50.597Z,25152
2018-05-29T05:50:52.274Z,23360
2018-05-29T05:51:53.949Z,21920
2018-05-29T05:52:55.628Z,21344
2018-05-29T05:53:57.290Z,21120
2018-05-29T05:54:58.955Z,20960
2018-05-29T06:01:14.168Z,20896
2018-05-29T06:02:15.850Z,20992
2018-05-29T06:03:17.517Z,21120
2018-05-29T06:04:19.186Z,21440
2018-05-29T06:05:20.889Z,21664
2018-05-29T06:06:22.535Z,21920
2018-05-29T06:07:24.214Z,22176
2018-05-29T06:08:25.899Z,22528
2018-05-29T06:09:27.571Z,22944
2018-05-29T06:10:29.341Z,24640
2018-05-29T06:11:31.019Z,27200
2018-05-29T06:12:32.685Z,30912
2018-05-29T06:13:34.355Z,33792
2018-05-29T06:14:36.024Z,34624
2018-05-29T06:15:37.701Z,34688
2018-05-29T06:16:39.365Z,34144
2018-05-29T06:17:41.039Z,35392
2018-05-29T06:18:42.725Z,38016
2018-05-29T06:19:44.384Z,39456
2018-05-29T06:20:46.067Z,40864
2018-05-29T06:21:47.782Z,40256
2018-05-29T06:22:49.430Z,39648
2018-05-29T06:23:51.107Z,39616
2018-05-29T06:24:52.786Z,39840
2018-05-29T06:25:54.463Z,42432
2018-05-29T06:26:56.156Z,44672
2018-05-29T06:27:57.839Z,42464
2018-05-29T06:28:59.519Z,42560
2018-05-29T06:30:01.197Z,44544
2018-05-29T06:31:02.865Z,47616
2018-05-29T06:32:04.545Z,48832
2018-05-29T06:33:06.217Z,48992
2018-05-29T06:34:07.905Z,48768
2018-05-29T06:35:09.593Z,47968
2018-05-29T06:36:11.294Z,49792
2018-05-29T06:37:13.019Z,50528
2018-05-29T06:38:14.698Z,50016
2018-05-29T06:39:16.395Z,50656
2018-05-29T06:40:18.065Z,51936
2018-05-29T06:41:19.734Z,53216
2018-05-29T06:42:21.412Z,55104
2018-05-29T06:43:23.097Z,56032
2018-05-29T06:44:24.790Z,56544
2018-05-29T06:45:26.461Z,57056
2018-05-29T06:46:28.138Z,57344
2018-05-29T06:47:29.812Z,57888
2018-05-29T06:48:31.505Z,58976
2018-05-29T06:49:33.200Z,60288
2018-05-29T06:50:34.888Z,60928
2018-05-29T06:51:36.603Z,60704
2018-05-29T06:52:38.326Z,61568
2018-05-29T06:53:39.949Z,62304
2018-05-29T06:54:41.643Z,62720
2018-05-29T06:55:43.315Z,63552
2018-05-29T06:56:44.989Z,64576
2018-05-29T06:57:46.739Z,64960
2018-05-29T06:58:48.370Z,63360
2018-05-29T06:59:50.072Z,61696
2018-05-29T07:00:51.749Z,65120
2018-05-29T07:01:53.434Z,68416
2018-05-29T07:02:55.119Z,69184
2018-05-29T07:03:57.484Z,68384
2018-05-29T07:04:58.950Z,69312
2018-05-29T07:06:00.630Z,71488
2018-05-29T07:07:02.412Z,72384
2018-05-29T07:08:03.966Z,71456
2018-05-29T07:09:05.687Z,73248
2018-05-29T07:10:07.375Z,73920
2018-05-29T07:11:09.077Z,74944
2018-05-29T07:12:10.748Z,75680
2018-05-29T07:13:12.433Z,75040
2018-05-29T07:14:14.110Z,74528
2018-05-29T07:15:15.789Z,76000
2018-05-29T07:16:17.477Z,74368
2018-05-29T07:17:19.161Z,76576
2018-05-29T07:18:20.847Z,78656
2018-05-29T07:19:22.549Z,77216
2018-05-29T07:20:24.233Z,76768
2018-05-29T07:21:25.907Z,76928
2018-05-29T07:22:27.592Z,79136
2018-05-29T07:23:29.276Z,81248
2018-05-29T07:24:31.001Z,82816
2018-05-29T07:25:32.691Z,81344
2018-05-29T07:26:34.373Z,81280
2018-05-29T07:27:36.058Z,82752
2018-05-29T07:28:37.757Z,80704
2018-05-29T07:29:39.429Z,81536
2018-05-29T07:30:41.107Z,82912
2018-05-29T07:31:42.803Z,83264
2018-05-29T07:32:44.490Z,83168
2018-05-29T07:33:46.179Z,82528
2018-05-29T07:34:47.862Z,83744
2018-05-29T07:35:49.539Z,86624
2018-05-29T07:36:51.231Z,85312
2018-05-29T07:37:52.917Z,83712
2018-05-29T07:38:54.614Z,84928
2018-05-29T07:39:56.277Z,86208
2018-05-29T07:40:57.966Z,85984
2018-05-29T07:41:59.648Z,83648
2018-05-29T07:43:01.322Z,82848
2018-05-29T07:44:03.002Z,84448
2018-05-29T07:45:04.680Z,85056
2018-05-29T07:46:06.357Z,85216
2018-05-29T07:47:08.041Z,84224
2018-05-29T07:48:09.805Z,79584
2018-05-29T07:49:11.489Z,78432
2018-05-29T07:50:13.185Z,81248
2018-05-29T07:51:14.854Z,86752
2018-05-29T07:52:16.530Z,87520
2018-05-29T07:53:18.220Z,86496
2018-05-29T07:54:19.913Z,87136
2018-05-29T07:55:21.589Z,85504
2018-05-29T07:56:23.323Z,84448
2018-05-29T07:57:25.000Z,85920
2018-05-29T07:58:26.799Z,86688
2018-05-29T07:59:28.477Z,86208
2018-05-29T08:00:30.148Z,86496
2018-05-29T08:01:31.836Z,86688
2018-05-29T08:02:33.521Z,87648
2018-05-29T08:03:35.208Z,87776
2018-05-29T08:04:36.920Z,86752
2018-05-29T08:05:38.594Z,85568
2018-05-29T08:06:40.272Z,86016
2018-05-29T08:07:41.950Z,86176
2018-05-29T08:08:43.634Z,84960
2018-05-29T08:09:45.327Z,83968
2018-05-29T08:10:47.012Z,85984
2018-05-29T08:11:48.687Z,84576
2018-05-29T08:12:50.380Z,86176
2018-05-29T08:13:52.061Z,87104
2018-05-29T08:14:53.747Z,86944
2018-05-29T08:15:55.446Z,89280
2018-05-29T08:16:57.115Z,89792
2018-05-29T08:17:58.801Z,89664
2018-05-29T08:19:00.474Z,88864
2018-05-29T08:20:02.157Z,85824
2018-05-29T08:21:03.872Z,80256
2018-05-29T08:22:05.558Z,81696
2018-05-29T08:23:07.248Z,77088
2018-05-29T08:24:08.920Z,72512
2018-05-29T08:25:10.645Z,72096
2018-05-29T08:26:12.321Z,73920
2018-05-29T08:27:14.000Z,80032
2018-05-29T08:28:15.682Z,83776
2018-05-29T08:29:17.360Z,84416
2018-05-29T08:30:19.034Z,84064
2018-05-29T08:31:20.758Z,84800
2018-05-29T08:32:22.447Z,83744
2018-05-29T08:33:24.123Z,83456
2018-05-29T08:34:25.800Z,91968
2018-05-29T08:35:27.484Z,96544
2018-05-29T08:36:29.165Z,99264
2018-05-29T08:37:30.865Z,96256
2018-05-29T08:38:32.555Z,97536
2018-05-29T08:39:34.240Z,94592
2018-05-29T08:40:35.948Z,92256
2018-05-29T08:41:37.650Z,96192
2018-05-29T08:42:39.336Z,98432
2018-05-29T08:43:41.023Z,96800
2018-05-29T08:44:42.721Z,93152
2018-05-29T08:45:44.400Z,88672
2018-05-29T08:46:46.085Z,80992
2018-05-29T08:47:47.768Z,68736
2018-05-29T08:48:49.459Z,61152
2018-05-29T08:49:51.215Z,61024
2018-05-29T08:50:52.915Z,64896
2018-05-29T08:51:54.607Z,70464
2018-05-29T08:52:56.301Z,75264
2018-05-29T08:53:57.995Z,77408
2018-05-29T08:54:59.694Z,82240
2018-05-29T08:56:01.376Z,88416
2018-05-29T08:57:03.058Z,96736
2018-05-29T08:58:04.759Z,104224
2018-05-29T08:59:06.455Z,109248
2018-05-29T09:00:08.155Z,115680
2018-05-29T09:01:09.840Z,120896
2018-05-29T09:02:11.522Z,119872
2018-05-29T09:03:13.209Z,120608
2018-05-29T09:04:14.920Z,122464
2018-05-29T09:05:16.590Z,116896
2018-05-29T09:06:18.270Z,104704
2018-05-29T09:07:19.949Z,108064
2018-05-29T09:08:21.644Z,113920
2018-05-29T09:09:23.324Z,115936
2018-05-29T09:10:25.015Z,117216
2018-05-29T09:11:26.695Z,124448
2018-05-29T09:12:28.377Z,126624
2018-05-29T09:13:30.081Z,128320
2018-05-29T09:14:31.833Z,128704
2018-05-29T09:15:33.523Z,125632
2018-05-29T09:16:35.205Z,127488
2018-05-29T09:17:36.916Z,130656
2018-05-29T09:18:38.599Z,127968
2018-05-29T09:19:40.286Z,128256
2018-05-29T09:20:41.971Z,121280
2018-05-29T09:21:43.656Z,115552
2018-05-29T09:22:45.354Z,106112
2018-05-29T09:23:47.036Z,104480
2018-05-29T09:24:48.712Z,107136
2018-05-29T09:25:50.389Z,109696
2018-05-29T09:26:52.075Z,120928
2018-05-29T09:27:53.853Z,125632
2018-05-29T09:28:55.531Z,122592
2018-05-29T09:29:57.257Z,122752
2018-05-29T09:30:58.919Z,121280
2018-05-29T09:32:00.700Z,122624
2018-05-29T09:33:02.378Z,124768
2018-05-29T09:34:04.053Z,119840
2018-05-29T09:35:05.742Z,117376
2018-05-29T09:36:07.464Z,117344
2018-05-29T09:37:09.187Z,115936
2018-05-29T09:38:10.876Z,117504
2018-05-29T09:39:12.654Z,116960
2018-05-29T09:40:14.402Z,116384
2018-05-29T09:41:16.039Z,116192
2018-05-29T09:42:17.719Z,115360
2018-05-29T09:43:19.411Z,103968
2018-05-29T09:44:21.096Z,51072
2018-05-29T09:45:22.773Z,97088
2018-05-29T09:46:24.461Z,113728
2018-05-29T09:47:26.143Z,111328
2018-05-29T09:48:27.839Z,111200
2018-05-29T09:49:29.542Z,110912
2018-05-29T09:50:31.375Z,110080
2018-05-29T09:51:33.070Z,104352
2018-05-29T09:52:34.760Z,100384
2018-05-29T09:53:36.467Z,100256
2018-05-29T09:54:38.155Z,97568
2018-05-29T09:55:39.833Z,102016
2018-05-29T10:02:02.642Z,98432
2018-05-29T10:03:04.326Z,100640
2018-05-29T10:04:56.266Z,97024
2018-05-29T10:05:57.924Z,98016
2018-05-29T10:06:59.622Z,98016
2018-05-29T10:08:01.284Z,99008
2018-05-29T10:09:02.967Z,98304
2018-05-29T10:10:04.658Z,99264
2018-05-29T10:11:06.344Z,100640
2018-05-29T10:12:08.033Z,100000
2018-05-29T10:13:09.726Z,98240
2018-05-29T10:14:11.397Z,99072
2018-05-29T10:15:13.080Z,99904
2018-05-29T10:16:14.776Z,100864
2018-05-29T10:17:16.457Z,103104
2018-05-29T10:18:18.152Z,103296
2018-05-29T10:19:19.840Z,100672
2018-05-29T10:20:21.526Z,100096
2018-05-29T10:21:23.216Z,102912
2018-05-29T10:22:24.899Z,104864
2018-05-29T10:23:26.615Z,100896
2018-05-29T10:24:28.320Z,105344
2018-05-29T10:25:30.007Z,107392
2018-05-29T10:26:31.690Z,106784
2018-05-29T10:27:33.385Z,106368
2018-05-29T10:28:35.067Z,103712
2018-05-29T10:29:36.792Z,107872
2018-05-29T10:30:38.462Z,108768
2018-05-29T10:31:40.175Z,112288
2018-05-29T10:32:41.846Z,109952
2018-05-29T10:33:43.536Z,113664
2018-05-29T10:34:45.217Z,119552
2018-05-29T10:35:46.918Z,117920
2018-05-29T10:36:48.592Z,113824
2018-05-29T10:37:50.294Z,101696
2018-05-29T10:38:51.983Z,105472
2018-05-29T10:39:53.678Z,101216
2018-05-29T10:40:55.360Z,99872
2018-05-29T10:41:57.050Z,99456
2018-05-29T10:42:58.732Z,100416
2018-05-29T10:44:00.429Z,100032
2018-05-29T10:45:02.126Z,98816
2018-05-29T10:46:03.839Z,104768
2018-05-29T10:47:05.532Z,108480
2018-05-29T10:48:07.210Z,101760
2018-05-29T10:49:08.928Z,110176
2018-05-29T10:50:10.619Z,109568
2018-05-29T10:51:12.323Z,108640
2018-05-29T10:52:14.006Z,109760
2018-05-29T10:53:15.749Z,93216
2018-05-29T10:54:17.406Z,98528
2018-05-29T10:55:19.100Z,106656
2018-05-29T10:56:20.791Z,111008
2018-05-29T10:57:22.491Z,108512
2018-05-29T10:58:24.171Z,117408
2018-05-29T10:59:25.913Z,122848
2018-05-29T11:00:28.851Z,125696
2018-05-29T11:01:30.626Z,131392
2018-05-29T11:02:32.344Z,131168
2018-05-29T11:03:34.030Z,135040
2018-05-29T11:04:35.726Z,138688
2018-05-29T11:05:37.414Z,135616
2018-05-29T11:06:39.116Z,134976
2018-05-29T11:07:40.801Z,133856
2018-05-29T11:08:42.486Z,137280
2018-05-29T11:09:44.182Z,139648
2018-05-29T11:10:45.873Z,146560
2018-05-29T11:11:47.583Z,145184
2018-05-29T11:12:49.266Z,142752
2018-05-29T11:13:50.957Z,140096
2018-05-29T11:14:52.659Z,138464
2018-05-29T11:15:54.366Z,136576
2018-05-29T11:16:56.053Z,125216
2018-05-29T11:17:57.754Z,134272
2018-05-29T11:18:59.437Z,141280
2018-05-29T11:20:01.147Z,143232
2018-05-29T11:21:02.812Z,149792
2018-05-29T11:22:04.505Z,146016
2018-05-29T11:23:06.194Z,43552
2018-05-29T11:24:07.941Z,145920
2018-05-29T11:25:09.602Z,149056
2018-05-29T11:26:11.291Z,150048
2018-05-29T11:27:12.976Z,147232
2018-05-29T11:28:14.656Z,145920
2018-05-29T11:29:16.341Z,136768
2018-05-29T11:30:18.030Z,130880
2018-05-29T11:31:19.790Z,125920
2018-05-29T11:32:21.401Z,133856
2018-05-29T11:33:23.085Z,132416
2018-05-29T11:34:24.790Z,122752
2018-05-29T11:35:26.494Z,120960
2018-05-29T11:36:28.191Z,115584
2018-05-29T11:37:29.912Z,106656
2018-05-29T11:38:31.598Z,104384
2018-05-29T11:39:33.283Z,108320
2018-05-29T11:40:34.981Z,131968
2018-05-29T11:41:36.731Z,127872
2018-05-29T11:42:39.543Z,45696
2018-05-29T11:43:41.038Z,104736
2018-05-29T11:44:42.766Z,120800
2018-05-29T11:45:44.587Z,111616
2018-05-29T11:46:46.264Z,104896
2018-05-29T11:47:47.956Z,102400
2018-05-29T11:48:49.644Z,101792
2018-05-29T11:49:51.321Z,102880
2018-05-29T11:50:53.011Z,111200
2018-05-29T11:51:54.703Z,106624
2018-05-29T11:52:56.391Z,41920
2018-05-29T11:53:58.067Z,34496
2018-05-29T11:54:59.784Z,56768
2018-05-29T11:56:01.508Z,93536
2018-05-29T11:57:03.180Z,93856
2018-05-29T11:58:04.874Z,93056
2018-05-29T11:59:06.576Z,91072
2018-05-29T12:00:08.263Z,33472
2018-05-29T12:01:09.937Z,31968
2018-05-29T12:02:11.613Z,30048
2018-05-29T12:03:13.295Z,31392
2018-05-29T12:04:14.981Z,76736
2018-05-29T12:05:16.665Z,92224
2018-05-29T12:06:18.367Z,98816
2018-05-29T12:07:20.135Z,96320
2018-05-29T12:08:21.833Z,95328
2018-05-29T12:09:23.531Z,92832
2018-05-29T12:10:25.228Z,92736
2018-05-29T12:11:26.908Z,97792
2018-05-29T12:12:28.582Z,100384
2018-05-29T12:13:30.259Z,104832
2018-05-29T12:14:31.944Z,99808
2018-05-29T12:15:33.759Z,98304
2018-05-29T12:16:35.460Z,99392
2018-05-29T12:17:37.178Z,100992
2018-05-29T12:18:38.865Z,46528
2018-05-29T12:19:40.560Z,102048
2018-05-29T12:20:42.245Z,96704
2018-05-29T12:21:43.925Z,91168
2018-05-29T12:22:45.607Z,84256
2018-05-29T12:23:47.298Z,77568
2018-05-29T12:24:48.999Z,59392
2018-05-29T12:25:50.680Z,53280
2018-05-29T12:26:52.424Z,73504
2018-05-29T12:27:54.109Z,58752
2018-05-29T12:28:55.788Z,61920
2018-05-29T12:29:57.504Z,72800
2018-05-29T12:30:59.181Z,87008
2018-05-29T12:32:00.918Z,92224
2018-05-29T12:33:02.593Z,95264
2018-05-29T12:34:04.286Z,99360
2018-05-29T12:35:05.962Z,101408
2018-05-29T12:36:07.642Z,98336
2018-05-29T12:37:09.325Z,98816
2018-05-29T12:38:11.017Z,99328
2018-05-29T12:39:12.856Z,96736
2018-05-29T12:40:14.536Z,101664
2018-05-29T12:41:16.217Z,104032
2018-05-29T12:42:17.930Z,106208
2018-05-29T12:43:19.612Z,99552
2018-05-29T12:44:21.299Z,96736
2018-05-29T12:45:22.991Z,91200
2018-05-29T12:46:24.786Z,90080
2018-05-29T12:47:26.325Z,91328
2018-05-29T12:48:28.007Z,71456
2018-05-29T12:49:29.701Z,59264
2018-05-29T12:50:31.396Z,61568
2018-05-29T12:51:33.087Z,68800
2018-05-29T12:52:34.812Z,91232
2018-05-29T12:53:36.544Z,96384
2018-05-29T12:54:38.221Z,102656
2018-05-29T12:55:39.914Z,85760
2018-05-29T12:56:41.592Z,94464
2018-05-29T14:01:33.382Z,54848
2018-05-29T14:02:35.052Z,52832
2018-05-29T14:04:26.921Z,55072
2018-05-29T14:05:28.596Z,54592
2018-05-29T14:06:30.276Z,51968
2018-05-29T14:07:31.950Z,48448
2018-05-29T14:08:33.639Z,49120
2018-05-29T14:09:35.309Z,50688
2018-05-29T14:10:37.031Z,50080
2018-05-29T14:11:38.707Z,49632
2018-05-29T14:12:40.396Z,47232
2018-05-29T14:13:42.065Z,43680
2018-05-29T14:14:43.778Z,42848
2018-05-29T14:15:45.459Z,33248
2018-05-29T14:16:47.140Z,39648
2018-05-29T14:17:48.817Z,38176
2018-05-29T14:18:50.502Z,37024
2018-05-29T14:19:52.189Z,36544
2018-05-29T14:20:53.861Z,36000
2018-05-29T14:21:55.533Z,34976
2018-05-29T14:22:57.214Z,34688
2018-05-29T14:23:58.890Z,34656
2018-05-29T14:25:00.579Z,34688
2018-05-29T14:26:02.263Z,35104
2018-05-29T14:27:03.936Z,35008
2018-05-29T14:28:05.604Z,35264
2018-05-29T14:29:07.297Z,34944
2018-05-29T14:30:08.993Z,34016
2018-05-29T14:31:10.703Z,33024
2018-05-29T14:32:12.376Z,32576
2018-05-29T14:33:14.054Z,32224
2018-05-29T14:34:15.729Z,31456
2018-05-29T14:35:17.398Z,31136
2018-05-29T14:36:19.106Z,30816
2018-05-29T14:37:20.781Z,30528
2018-05-29T14:38:23.341Z,29888
2018-05-29T14:39:25.020Z,29248
2018-05-29T14:40:26.664Z,28672
2018-05-29T14:41:28.368Z,28512
2018-05-29T14:42:30.057Z,28768
2018-05-29T14:43:31.773Z,29472
2018-05-29T14:44:33.499Z,30656
2018-05-29T14:45:35.203Z,32256
2018-05-29T14:46:36.909Z,33408
2018-05-29T14:47:38.581Z,33728
2018-05-29T14:48:40.268Z,32704
2018-05-29T14:49:41.940Z,31872
2018-05-29T14:50:43.617Z,30400
2018-05-29T14:51:45.290Z,28960
2018-05-29T14:52:47.045Z,27744
2018-05-29T14:53:48.730Z,26976
2018-05-29T14:54:50.446Z,26304
2018-05-29T14:55:52.128Z,25440
2018-05-29T14:56:53.803Z,24576